N256CH KSMO-KCRQ
Flight info
| Callsign | N256CH |
|---|---|
| Flight time | N/A |
| Altitude | 11000 |
| Route | SXC V208 OCN |
| Aircraft | C750/M-VGDW/C |
Departure
| Time | 2026-05-03 21:05 |
|---|---|
| Airport | Santa Monica Municipal Airport (KSMO) |
Arrival
| Time | N/A |
|---|---|
| Airport | McClellan-Palomar Airport (KCRQ) |
| Time | Latitude | Longitude | Altitude | Speed | Heading |
|---|---|---|---|---|---|
| 2026-05-03 20:51 | 34.01318 | -118.45228 | 143 ft | 0 kts | 131° |
| 2026-05-03 20:55 | 34.01323 | -118.45235 | 143 ft | 4 kts | 138° |
| 2026-05-03 20:55 | 34.01339 | -118.45245 | 144 ft | 4 kts | 219° |
| 2026-05-03 20:55 | 34.01354 | -118.45221 | 144 ft | 4 kts | 230° |
| 2026-05-03 20:55 | 34.01362 | -118.45211 | 145 ft | 1 kts | 224° |
| 2026-05-03 20:56 | 34.01362 | -118.45210 | 145 ft | 0 kts | 224° |
| 2026-05-03 20:57 | 34.01362 | -118.45211 | 145 ft | 1 kts | 224° |
| 2026-05-03 20:57 | 34.01345 | -118.45229 | 144 ft | 5 kts | 224° |
| 2026-05-03 20:58 | 34.01318 | -118.45261 | 143 ft | 6 kts | 224° |
| 2026-05-03 20:58 | 34.01287 | -118.45298 | 143 ft | 6 kts | 228° |
| 2026-05-03 20:58 | 34.01273 | -118.45346 | 142 ft | 6 kts | 272° |
| 2026-05-03 20:58 | 34.01289 | -118.45361 | 143 ft | 2 kts | 9° |
| 2026-05-03 20:59 | 34.01304 | -118.45350 | 144 ft | 3 kts | 40° |
| 2026-05-03 20:59 | 34.01332 | -118.45317 | 145 ft | 8 kts | 46° |
| 2026-05-03 20:59 | 34.01368 | -118.45277 | 146 ft | 6 kts | 44° |
| 2026-05-03 20:59 | 34.01395 | -118.45246 | 147 ft | 5 kts | 43° |
| 2026-05-03 21:00 | 34.01419 | -118.45217 | 149 ft | 5 kts | 47° |
| 2026-05-03 21:00 | 34.01438 | -118.45193 | 150 ft | 6 kts | 46° |
| 2026-05-03 21:00 | 34.01484 | -118.45136 | 152 ft | 8 kts | 45° |
| 2026-05-03 21:00 | 34.01534 | -118.45077 | 153 ft | 12 kts | 43° |
| 2026-05-03 21:01 | 34.01589 | -118.45016 | 155 ft | 9 kts | 45° |
| 2026-05-03 21:01 | 34.01625 | -118.44972 | 157 ft | 6 kts | 46° |
| 2026-05-03 21:01 | 34.01652 | -118.44938 | 160 ft | 5 kts | 46° |
| 2026-05-03 21:01 | 34.01673 | -118.44912 | 161 ft | 4 kts | 45° |
| 2026-05-03 21:02 | 34.01701 | -118.44879 | 163 ft | 8 kts | 44° |
| 2026-05-03 21:02 | 34.01754 | -118.44819 | 166 ft | 12 kts | 43° |
| 2026-05-03 21:02 | 34.01803 | -118.44762 | 169 ft | 7 kts | 44° |
| 2026-05-03 21:02 | 34.01825 | -118.44736 | 172 ft | 3 kts | 44° |
| 2026-05-03 21:03 | 34.01844 | -118.44713 | 174 ft | 6 kts | 44° |
| 2026-05-03 21:03 | 34.01884 | -118.44666 | 178 ft | 10 kts | 44° |
| 2026-05-03 21:03 | 34.01950 | -118.44588 | 181 ft | 14 kts | 44° |
| 2026-05-03 21:03 | 34.01987 | -118.44559 | 183 ft | 0 kts | 3° |
| 2026-05-03 21:04 | 34.01996 | -118.44559 | 184 ft | 3 kts | 355° |
| 2026-05-03 21:04 | 34.02026 | -118.44568 | 192 ft | 6 kts | 319° |
| 2026-05-03 21:04 | 34.02006 | -118.44630 | 184 ft | 8 kts | 222° |
| 2026-05-03 21:05 | 34.02004 | -118.44632 | 183 ft | 0 kts | 222° |
| 2026-05-03 21:05 | 34.01943 | -118.44701 | 180 ft | 45 kts | 224° |
| 2026-05-03 21:05 | 34.01465 | -118.45274 | 152 ft | 142 kts | 225° |
| 2026-05-03 21:05 | 34.00797 | -118.46130 | 875 ft | 136 kts | 232° |
| 2026-05-03 21:06 | 34.00352 | -118.47218 | 1389 ft | 157 kts | 252° |
| 2026-05-03 21:06 | 34.00097 | -118.48561 | 2050 ft | 174 kts | 259° |
| 2026-05-03 21:06 | 33.99900 | -118.50104 | 2588 ft | 198 kts | 262° |
| 2026-05-03 21:06 | 33.99733 | -118.51762 | 3459 ft | 200 kts | 263° |
| 2026-05-03 21:07 | 33.99572 | -118.53499 | 4127 ft | 222 kts | 263° |
| 2026-05-03 21:07 | 33.99376 | -118.55322 | 5251 ft | 216 kts | 262° |
| 2026-05-03 21:07 | 33.99082 | -118.57122 | 6081 ft | 226 kts | 248° |
| 2026-05-03 21:07 | 33.97984 | -118.58445 | 6926 ft | 231 kts | 203° |
| 2026-05-03 21:08 | 33.96397 | -118.58584 | 7940 ft | 231 kts | 176° |
| 2026-05-03 21:08 | 33.94782 | -118.58493 | 8938 ft | 234 kts | 180° |
| 2026-05-03 21:08 | 33.93139 | -118.58390 | 9838 ft | 239 kts | 173° |
| 2026-05-03 21:08 | 33.91503 | -118.57957 | 10693 ft | 244 kts | 165° |
| 2026-05-03 21:09 | 33.89829 | -118.57384 | 11063 ft | 260 kts | 165° |
| 2026-05-03 21:09 | 33.87983 | -118.56818 | 11061 ft | 287 kts | 167° |
| 2026-05-03 21:09 | 33.85958 | -118.56249 | 11061 ft | 310 kts | 167° |
| 2026-05-03 21:09 | 33.83798 | -118.55608 | 11063 ft | 330 kts | 166° |
| 2026-05-03 21:10 | 33.81509 | -118.54917 | 11061 ft | 347 kts | 167° |
| 2026-05-03 21:10 | 33.79123 | -118.54215 | 11063 ft | 361 kts | 167° |
| 2026-05-03 21:10 | 33.76638 | -118.53488 | 11062 ft | 373 kts | 167° |
| 2026-05-03 21:10 | 33.74083 | -118.52732 | 11057 ft | 383 kts | 167° |
| 2026-05-03 21:11 | 33.71494 | -118.51966 | 11062 ft | 381 kts | 167° |
| 2026-05-03 21:11 | 33.68937 | -118.51213 | 11058 ft | 377 kts | 167° |
| 2026-05-03 21:11 | 33.66405 | -118.50469 | 11058 ft | 373 kts | 167° |
| 2026-05-03 21:11 | 33.63900 | -118.49731 | 11049 ft | 369 kts | 167° |
| 2026-05-03 21:12 | 33.61414 | -118.49000 | 11044 ft | 366 kts | 167° |
| 2026-05-03 21:12 | 33.58950 | -118.48276 | 11044 ft | 364 kts | 167° |
| 2026-05-03 21:12 | 33.56497 | -118.47555 | 11041 ft | 362 kts | 167° |
| 2026-05-03 21:12 | 33.54059 | -118.46840 | 11043 ft | 361 kts | 167° |
| 2026-05-03 21:13 | 33.51708 | -118.45824 | 11001 ft | 361 kts | 150° |
| 2026-05-03 21:13 | 33.49925 | -118.43736 | 11012 ft | 363 kts | 124° |
| 2026-05-03 21:13 | 33.48884 | -118.40998 | 11044 ft | 362 kts | 107° |
| 2026-05-03 21:13 | 33.48259 | -118.38072 | 11064 ft | 363 kts | 103° |
| 2026-05-03 21:14 | 33.47626 | -118.35140 | 11058 ft | 365 kts | 106° |
| 2026-05-03 21:14 | 33.46868 | -118.32235 | 11063 ft | 366 kts | 108° |
| 2026-05-03 21:14 | 33.46095 | -118.29324 | 11058 ft | 367 kts | 107° |
| 2026-05-03 21:14 | 33.45385 | -118.26391 | 11062 ft | 368 kts | 106° |
| 2026-05-03 21:15 | 33.44679 | -118.23437 | 11064 ft | 369 kts | 106° |
| 2026-05-03 21:15 | 33.43941 | -118.20494 | 11061 ft | 369 kts | 107° |
| 2026-05-03 21:15 | 33.43195 | -118.17553 | 11061 ft | 369 kts | 107° |
| 2026-05-03 21:15 | 33.42464 | -118.14607 | 11057 ft | 369 kts | 107° |
| 2026-05-03 21:16 | 33.41736 | -118.11661 | 11055 ft | 369 kts | 107° |
| 2026-05-03 21:16 | 33.41000 | -118.08719 | 11053 ft | 369 kts | 107° |
| 2026-05-03 21:16 | 33.40263 | -118.05781 | 11057 ft | 368 kts | 107° |
| 2026-05-03 21:16 | 33.39530 | -118.02846 | 11058 ft | 368 kts | 107° |
| 2026-05-03 21:17 | 33.38796 | -117.99911 | 11052 ft | 369 kts | 107° |
| 2026-05-03 21:17 | 33.38307 | -117.97959 | 11053 ft | 370 kts | 107° |
| 2026-05-03 21:17 | 33.37312 | -117.94000 | 11062 ft | 372 kts | 107° |
| 2026-05-03 21:17 | 33.36568 | -117.91030 | 11059 ft | 373 kts | 107° |
| 2026-05-03 21:18 | 33.35829 | -117.88090 | 11057 ft | 374 kts | 107° |
| 2026-05-03 21:18 | 33.35078 | -117.85110 | 11062 ft | 375 kts | 107° |
| 2026-05-03 21:18 | 33.34314 | -117.82086 | 11060 ft | 375 kts | 107° |
| 2026-05-03 21:18 | 33.33570 | -117.79143 | 11064 ft | 375 kts | 107° |
| 2026-05-03 21:19 | 33.32818 | -117.76156 | 11060 ft | 375 kts | 107° |
| 2026-05-03 21:19 | 33.32066 | -117.73175 | 10921 ft | 369 kts | 107° |
| 2026-05-03 21:19 | 33.31341 | -117.70325 | 10581 ft | 349 kts | 107° |
| 2026-05-03 21:19 | 33.30649 | -117.67605 | 10215 ft | 335 kts | 107° |
| 2026-05-03 21:20 | 33.29984 | -117.64983 | 9849 ft | 324 kts | 107° |
| 2026-05-03 21:20 | 33.29351 | -117.62487 | 9488 ft | 296 kts | 107° |
| 2026-05-03 21:20 | 33.28764 | -117.60181 | 9111 ft | 284 kts | 107° |
| 2026-05-03 21:20 | 33.28195 | -117.57949 | 8738 ft | 278 kts | 107° |
| 2026-05-03 21:21 | 33.27638 | -117.55759 | 8371 ft | 273 kts | 107° |
| 2026-05-03 21:21 | 33.27090 | -117.53610 | 8013 ft | 268 kts | 107° |
| 2026-05-03 21:21 | 33.26550 | -117.51496 | 7656 ft | 265 kts | 107° |
| 2026-05-03 21:21 | 33.26012 | -117.49387 | 7304 ft | 265 kts | 107° |
| 2026-05-03 21:22 | 33.25473 | -117.47279 | 6957 ft | 265 kts | 107° |
| 2026-05-03 21:22 | 33.24936 | -117.45178 | 6608 ft | 265 kts | 107° |
| 2026-05-03 21:22 | 33.24398 | -117.43076 | 6260 ft | 264 kts | 107° |
| 2026-05-03 21:22 | 33.23960 | -117.40956 | 5894 ft | 264 kts | 98° |
| 2026-05-03 21:23 | 33.23722 | -117.38774 | 5551 ft | 264 kts | 98° |
| 2026-05-03 21:23 | 33.23466 | -117.36598 | 5200 ft | 264 kts | 98° |
| 2026-05-03 21:23 | 33.23205 | -117.34441 | 4861 ft | 259 kts | 98° |
| 2026-05-03 21:23 | 33.22956 | -117.32341 | 4548 ft | 251 kts | 98° |
| 2026-05-03 21:24 | 33.22723 | -117.30344 | 4547 ft | 236 kts | 98° |
| 2026-05-03 21:24 | 33.22571 | -117.29042 | 4549 ft | 233 kts | 98° |
| 2026-05-03 21:24 | 33.22272 | -117.26526 | 4545 ft | 230 kts | 98° |
| 2026-05-03 21:24 | 33.22047 | -117.24639 | 4552 ft | 229 kts | 98° |
| 2026-05-03 21:25 | 33.21824 | -117.22752 | 4546 ft | 229 kts | 98° |
| 2026-05-03 21:25 | 33.21673 | -117.21477 | 4551 ft | 230 kts | 98° |
| 2026-05-03 21:25 | 33.21449 | -117.19581 | 4543 ft | 232 kts | 98° |
| 2026-05-03 21:25 | 33.21226 | -117.17707 | 4551 ft | 231 kts | 98° |
| 2026-05-03 21:26 | 33.20998 | -117.15801 | 4562 ft | 233 kts | 98° |
| 2026-05-03 21:26 | 33.20770 | -117.13890 | 4547 ft | 232 kts | 98° |
| 2026-05-03 21:26 | 33.20540 | -117.11952 | 4233 ft | 237 kts | 98° |
| 2026-05-03 21:26 | 33.20255 | -117.10004 | 3873 ft | 239 kts | 105° |
| 2026-05-03 21:27 | 33.19337 | -117.08377 | 3339 ft | 244 kts | 143° |
| 2026-05-03 21:27 | 33.17776 | -117.07868 | 3211 ft | 228 kts | 187° |
| 2026-05-03 21:27 | 33.16413 | -117.08622 | 3268 ft | 209 kts | 222° |
| 2026-05-03 21:27 | 33.15742 | -117.10029 | 3319 ft | 189 kts | 256° |
| 2026-05-03 21:28 | 33.15491 | -117.11556 | 3161 ft | 192 kts | 259° |
| 2026-05-03 21:28 | 33.15220 | -117.13172 | 2847 ft | 203 kts | 259° |
| 2026-05-03 21:28 | 33.14945 | -117.14849 | 2554 ft | 207 kts | 259° |
| 2026-05-03 21:28 | 33.14676 | -117.16507 | 2220 ft | 199 kts | 259° |
| 2026-05-03 21:29 | 33.14428 | -117.18085 | 1969 ft | 189 kts | 259° |
| 2026-05-03 21:29 | 33.14186 | -117.19610 | 1774 ft | 194 kts | 259° |
| 2026-05-03 21:29 | 33.13924 | -117.21285 | 2146 ft | 210 kts | 259° |
| 2026-05-03 21:29 | 33.13653 | -117.23005 | 2838 ft | 214 kts | 259° |
| 2026-05-03 21:30 | 33.13362 | -117.24765 | 3652 ft | 217 kts | 258° |
| 2026-05-03 21:30 | 33.13044 | -117.26543 | 4486 ft | 222 kts | 258° |
| 2026-05-03 21:30 | 33.12730 | -117.28442 | 4775 ft | 252 kts | 259° |
| 2026-05-03 21:30 | 33.12361 | -117.30699 | 4779 ft | 300 kts | 259° |
| 2026-05-03 21:31 | 33.11953 | -117.33231 | 4766 ft | 304 kts | 259° |
| 2026-05-03 21:31 | 33.11579 | -117.35574 | 4764 ft | 272 kts | 259° |
| 2026-05-03 21:31 | 33.11237 | -117.37663 | 4841 ft | 243 kts | 259° |
| 2026-05-03 21:31 | 33.10920 | -117.39604 | 4902 ft | 235 kts | 259° |
| 2026-05-03 21:32 | 33.10610 | -117.41511 | 4977 ft | 234 kts | 259° |
| 2026-05-03 21:32 | 33.10304 | -117.43403 | 5039 ft | 232 kts | 259° |